Time;durP1;ratioP1;P1;durP2;ratioP2;P2;SDS_P1;SDS_P2;PMS_P1;PMS_P2;Temp;Humidity;BMP_temperature;BMP_pressure;BME280_temperature;BME280_humidity;BME280_pressure;Samples;Min_cycle;Max_cycle;Signal;HPM_P1;HPM_P2
2023/03/04 00:00:56;;;;;;;77.80;29.08;;;;;;;2.29;nan;100651.47;4998787;28;20453;-68
2023/03/04 00:03:21;;;;;;;78.40;29.67;;;;;;;2.27;nan;100656.59;4991173;28;20035;-68
2023/03/04 00:05:47;;;;;;;88.00;30.65;;;;;;;2.26;nan;100660.03;5006309;28;20030;-68
2023/03/04 00:08:12;;;;;;;94.50;30.73;;;;;;;2.23;nan;100659.94;5003320;28;20058;-68
2023/03/04 00:10:38;;;;;;;85.67;30.07;;;;;;;2.18;nan;100658.88;4992404;28;20030;-68
2023/03/04 00:13:03;;;;;;;80.55;30.30;;;;;;;2.18;nan;100658.88;4979397;28;20030;-69
2023/03/04 00:15:29;;;;;;;83.57;29.33;;;;;;;2.18;nan;100663.22;4979347;28;20023;-68
2023/03/04 00:17:54;;;;;;;93.07;30.03;;;;;;;2.19;nan;100659.78;4979192;28;20030;-68
2023/03/04 00:20:20;;;;;;;74.30;29.23;;;;;;;2.19;nan;100652.00;4979286;28;20027;-68
2023/03/04 00:22:45;;;;;;;87.00;30.10;;;;;;;2.18;nan;100655.41;4979069;28;20109;-68
2023/03/04 00:25:11;;;;;;;68.97;28.17;;;;;;;2.19;nan;100665.84;4979039;28;20023;-68
2023/03/04 00:27:36;;;;;;;80.93;29.97;;;;;;;2.17;nan;100669.22;5001813;28;20478;-68
2023/03/04 00:30:02;;;;;;;80.53;29.40;;;;;;;2.17;nan;100664.00;4983127;28;20022;-68
2023/03/04 00:32:28;;;;;;;72.10;28.53;;;;;;;2.15;nan;100666.56;4984552;28;20035;-68
2023/03/04 00:34:53;;;;;;;74.25;29.35;;;;;;;2.17;nan;100667.50;4978845;28;20023;-68
2023/03/04 00:37:18;;;;;;;76.27;27.90;;;;;;;2.19;nan;100657.19;4978872;28;20077;-68
2023/03/04 00:39:44;;;;;;;74.37;27.93;;;;;;;2.22;nan;100663.38;4978807;28;20038;-68
2023/03/04 00:42:09;;;;;;;78.30;29.07;;;;;;;2.28;nan;100658.38;4983389;28;20165;-68
2023/03/04 00:44:34;;;;;;;86.80;29.87;;;;;;;2.32;nan;100666.31;4991535;28;20062;-68
2023/03/04 00:47:00;;;;;;;78.50;29.87;;;;;;;2.37;nan;100664.75;4978510;28;20269;-68
2023/03/04 00:49:25;;;;;;;79.63;31.17;;;;;;;2.42;nan;100668.41;4978132;28;20030;-68
2023/03/04 00:51:50;;;;;;;81.27;30.70;;;;;;;2.47;nan;100663.38;4978573;28;20114;-68
2023/03/04 00:54:16;;;;;;;76.37;30.33;;;;;;;2.48;nan;100663.41;4978296;28;20019;-68
2023/03/04 00:56:41;;;;;;;84.03;31.00;;;;;;;2.51;nan;100665.25;4978701;28;20050;-68
2023/03/04 00:59:07;;;;;;;87.32;32.25;;;;;;;2.53;nan;100666.19;4992526;28;20034;-68
2023/03/04 01:01:32;;;;;;;85.63;31.70;;;;;;;2.53;nan;100661.88;4996421;28;20042;-68
2023/03/04 01:03:57;;;;;;;81.87;30.90;;;;;;;2.53;nan;100653.19;4994574;28;20034;-68
2023/03/04 01:06:23;;;;;;;84.27;30.63;;;;;;;2.53;nan;100658.38;5010975;28;20028;-68
2023/03/04 01:08:48;;;;;;;88.23;33.53;;;;;;;2.51;nan;100657.44;4997366;28;20022;-68
2023/03/04 01:11:14;;;;;;;78.03;29.17;;;;;;;2.47;nan;100652.97;4997799;28;20034;-68
2023/03/04 01:13:39;;;;;;;81.77;29.87;;;;;;;2.43;nan;100650.28;4996384;28;20038;-68
2023/03/04 01:16:05;;;;;;;87.20;30.63;;;;;;;2.39;nan;100656.16;4997564;28;20022;-69
2023/03/04 01:18:31;;;;;;;80.78;30.17;;;;;;;2.36;nan;100653.47;4997611;28;20395;-68
2023/03/04 01:20:57;;;;;;;80.17;30.50;;;;;;;2.31;nan;100644.63;4996390;28;20022;-67
2023/03/04 01:23:23;;;;;;;79.83;29.47;;;;;;;2.27;nan;100647.94;4996967;28;20261;-68
2023/03/04 01:25:48;;;;;;;83.97;30.60;;;;;;;2.21;nan;100642.53;4997347;28;20026;-68
2023/03/04 01:28:13;;;;;;;78.55;30.48;;;;;;;2.17;nan;100646.72;5006495;28;20022;-68
2023/03/04 01:30:39;;;;;;;77.00;30.70;;;;;;;2.13;nan;100640.53;4986765;28;20109;-67
2023/03/04 01:33:04;;;;;;;75.80;29.80;;;;;;;2.13;nan;100639.66;4980810;28;20085;-70
2023/03/04 01:35:29;;;;;;;72.67;27.93;;;;;;;2.10;nan;100644.75;4978037;28;20085;-70
2023/03/04 01:37:55;;;;;;;74.83;28.07;;;;;;;2.04;nan;100634.09;4977669;28;20019;-70
2023/03/04 01:40:20;;;;;;;85.63;29.53;;;;;;;2.00;nan;100636.59;4981914;28;20030;-69
2023/03/04 01:42:46;;;;;;;76.70;27.92;;;;;;;1.97;nan;100633.03;4986787;28;20044;-69
2023/03/04 01:45:14;;;;;;;85.67;29.63;;;;;;;1.93;nan;100637.19;4987404;28;20027;-69
2023/03/04 01:47:42;;;;;;;85.35;28.70;;;;;;;1.90;nan;100631.00;4977707;28;20025;-69
2023/03/04 01:50:26;;;;;;;74.40;26.50;;;;;;;1.86;nan;100627.44;4977738;28;20034;-68
2023/03/04 01:52:51;;;;;;;80.95;28.42;;;;;;;1.80;nan;100627.16;4977400;28;20030;-68
2023/03/04 01:55:21;;;;;;;71.75;26.83;;;;;;;1.74;nan;100621.75;4978106;28;20027;-68
2023/03/04 01:57:48;;;;;;;69.40;27.47;;;;;;;1.70;nan;100621.66;4977837;28;20037;-68
2023/03/04 02:00:29;;;;;;;77.57;28.48;;;;;;;1.68;nan;100620.69;4999494;28;20511;-68
2023/03/04 02:02:59;;;;;;;73.57;27.15;;;;;;;1.68;nan;100614.63;4994230;28;20033;-68
2023/03/04 02:05:25;;;;;;;74.00;26.63;;;;;;;1.69;nan;100617.28;5011345;28;20031;-68
2023/03/04 02:07:52;;;;;;;64.63;25.92;;;;;;;1.70;nan;100618.19;5011001;28;20135;-68
2023/03/04 02:10:18;;;;;;;70.97;25.40;;;;;;;1.69;nan;100617.28;5002289;28;20037;-68
2023/03/04 02:12:43;;;;;;;75.03;26.75;;;;;;;1.68;nan;100612.91;5003604;28;20022;-68
2023/03/04 02:15:09;;;;;;;79.45;27.20;;;;;;;1.66;nan;100606.78;5003500;28;20026;-68
2023/03/04 02:17:35;;;;;;;78.07;28.30;;;;;;;1.65;nan;100610.22;5003623;28;20033;-68
2023/03/04 02:20:29;;;;;;;74.77;27.10;;;;;;;1.62;nan;100606.59;5003353;28;20050;-68
2023/03/04 02:23:24;;;;;;;81.95;27.35;;;;;;;1.55;nan;100598.59;5003071;28;20398;-68
2023/03/04 02:26:15;;;;;;;69.50;25.42;;;;;;;1.50;nan;100604.41;5003889;28;20019;-68
2023/03/04 02:28:40;;;;;;;74.47;26.38;;;;;;;1.48;nan;100594.00;4980550;28;20455;-68
2023/03/04 02:31:06;;;;;;;73.47;26.30;;;;;;;1.47;nan;100593.94;4995251;28;20037;-70
2023/03/04 02:33:32;;;;;;;80.30;27.40;;;;;;;1.46;nan;100598.25;4984009;28;20061;-70
2023/03/04 02:35:58;;;;;;;77.80;28.08;;;;;;;1.45;nan;100599.06;4983787;28;20584;-70
2023/03/04 02:38:23;;;;;;;77.82;27.10;;;;;;;1.41;nan;100594.56;4983765;28;20061;-70
2023/03/04 02:40:51;;;;;;;77.68;27.83;;;;;;;1.40;nan;100598.88;4993103;28;20156;-70
2023/03/04 02:43:17;;;;;;;81.53;28.40;;;;;;;1.36;nan;100589.22;4991494;28;20104;-70
2023/03/04 02:45:49;;;;;;;78.37;26.83;;;;;;;1.33;nan;100581.31;4989201;28;20109;-70
2023/03/04 02:48:19;;;;;;;85.10;28.57;;;;;;;1.31;nan;100582.94;4984471;28;20255;-70
2023/03/04 02:50:49;;;;;;;84.20;27.52;;;;;;;1.26;nan;100590.56;4988565;28;20475;-70
2023/03/04 02:53:15;;;;;;;74.05;26.38;;;;;;;1.21;nan;100586.91;4983656;28;20031;-70
2023/03/04 02:55:42;;;;;;;81.27;27.63;;;;;;;1.19;nan;100579.91;4983698;28;20030;-70
2023/03/04 02:58:08;;;;;;;80.40;29.38;;;;;;;1.17;nan;100581.53;4993017;28;20218;-70
2023/03/04 03:00:33;;;;;;;80.15;28.88;;;;;;;1.14;nan;100582.28;5002984;28;20118;-70
2023/03/04 03:02:59;;;;;;;81.70;28.03;;;;;;;1.11;nan;100580.47;5003228;28;20085;-70
2023/03/04 03:05:28;;;;;;;80.60;27.92;;;;;;;1.08;nan;100577.75;5008572;28;20037;-69
2023/03/04 03:07:53;;;;;;;78.57;27.50;;;;;;;1.05;nan;100579.34;4995323;28;20031;-70
2023/03/04 03:10:19;;;;;;;81.32;27.38;;;;;;;1.00;nan;100572.28;5001674;28;20060;-70
2023/03/04 03:12:45;;;;;;;79.00;27.97;;;;;;;0.98;nan;100583.41;4999755;28;20068;-70
2023/03/04 03:15:11;;;;;;;77.05;26.33;;;;;;;0.94;nan;100579.78;4999977;28;20065;-70
2023/03/04 03:17:36;;;;;;;73.57;26.13;;;;;;;0.89;nan;100572.66;4998758;28;20045;-70
2023/03/04 03:20:02;;;;;;;74.37;26.73;;;;;;;0.85;nan;100577.72;4999678;28;20503;-70
2023/03/04 03:22:28;;;;;;;75.33;26.90;;;;;;;0.81;nan;100573.22;4999689;28;21054;-70
2023/03/04 03:24:53;;;;;;;75.70;27.67;;;;;;;0.76;nan;100582.53;4999588;28;20093;-70
2023/03/04 03:27:18;;;;;;;66.00;25.03;;;;;;;0.73;nan;100577.22;5008818;28;20481;-70
2023/03/04 03:29:44;;;;;;;75.93;26.87;;;;;;;0.74;nan;100575.53;4987692;28;20842;-70
2023/03/04 03:32:10;;;;;;;75.73;26.23;;;;;;;0.75;nan;100574.72;4989247;28;20058;-70
2023/03/04 03:34:35;;;;;;;76.43;27.23;;;;;;;0.74;nan;100573.81;4980178;28;20457;-70
2023/03/04 03:37:00;;;;;;;78.23;26.87;;;;;;;0.73;nan;100574.63;4979948;28;20475;-70
2023/03/04 03:39:26;;;;;;;74.43;27.20;;;;;;;0.72;nan;100570.28;4979955;28;20042;-70
2023/03/04 03:41:51;;;;;;;75.10;27.97;;;;;;;0.70;nan;100572.78;4986942;28;20031;-70
2023/03/04 03:44:16;;;;;;;78.23;27.47;;;;;;;0.68;nan;100569.25;4991657;28;21366;-70
2023/03/04 03:46:42;;;;;;;72.70;25.80;;;;;;;0.67;nan;100571.78;4984903;28;20262;-70
2023/03/04 03:49:07;;;;;;;72.23;25.50;;;;;;;0.66;nan;100572.63;4983752;28;20039;-70
2023/03/04 03:51:33;;;;;;;71.10;25.50;;;;;;;0.65;nan;100570.84;4979947;28;20069;-70
2023/03/04 03:53:58;;;;;;;73.83;25.43;;;;;;;0.64;nan;100569.09;4982791;28;20086;-70
2023/03/04 03:56:23;;;;;;;76.17;27.27;;;;;;;0.63;nan;100569.91;4979917;28;20081;-70
2023/03/04 03:58:49;;;;;;;67.83;25.30;;;;;;;0.62;nan;100573.31;4985313;28;20038;-70
2023/03/04 04:01:14;;;;;;;72.00;26.50;;;;;;;0.58;nan;100572.28;4997592;28;20383;-70
2023/03/04 04:03:39;;;;;;;74.73;26.47;;;;;;;0.59;nan;100573.16;5003306;28;20077;-70
2023/03/04 04:06:05;;;;;;;78.03;26.90;;;;;;;0.55;nan;100578.22;5008172;28;20083;-70
2023/03/04 04:08:32;;;;;;;83.22;28.13;;;;;;;0.55;nan;100567.84;5000891;28;20032;-70
2023/03/04 04:10:57;;;;;;;83.13;28.23;;;;;;;0.54;nan;100576.44;4999186;28;20085;-70
2023/03/04 04:13:23;;;;;;;79.97;30.05;;;;;;;0.48;nan;100585.66;4999110;28;20113;-68
2023/03/04 04:15:50;;;;;;;82.40;28.30;;;;;;;0.39;nan;100575.84;4998770;28;20121;-70
2023/03/04 04:18:16;;;;;;;83.20;30.20;;;;;;;0.34;nan;100583.41;4998813;28;20026;-70
2023/03/04 04:20:41;;;;;;;99.77;31.97;;;;;;;0.32;nan;100584.13;4997532;28;20036;-67
2023/03/04 04:23:06;;;;;;;91.63;31.07;;;;;;;0.30;nan;100583.19;4998055;28;20026;-70
2023/03/04 04:25:32;;;;;;;85.13;29.67;;;;;;;0.30;nan;100580.59;4998698;28;20026;-70
2023/03/04 04:27:57;;;;;;;81.03;28.93;;;;;;;0.34;nan;100582.50;5008338;28;20340;-69
2023/03/04 04:30:23;;;;;;;85.68;29.25;;;;;;;0.37;nan;100572.28;4985678;28;20105;-70
2023/03/04 04:32:48;;;;;;;78.47;29.23;;;;;;;0.39;nan;100573.25;4983446;28;20030;-70
2023/03/04 04:35:13;;;;;;;89.50;30.33;;;;;;;0.40;nan;100573.28;4979131;28;20054;-69
2023/03/04 04:37:39;;;;;;;84.20;28.97;;;;;;;0.42;nan;100570.78;4978757;28;20027;-70
2023/03/04 04:40:05;;;;;;;83.57;29.60;;;;;;;0.43;nan;100564.78;4980166;28;20026;-70
2023/03/04 04:42:30;;;;;;;75.75;27.02;;;;;;;0.42;nan;100566.47;4984474;28;20398;-70
2023/03/04 04:44:56;;;;;;;75.90;27.83;;;;;;;0.39;nan;100563.75;4989248;28;20402;-69
2023/03/04 04:47:22;;;;;;;75.72;27.60;;;;;;;0.38;nan;100561.09;4977434;28;20027;-70
2023/03/04 04:49:47;;;;;;;83.68;29.00;;;;;;;0.36;nan;100566.22;4981434;28;20032;-69
2023/03/04 04:52:12;;;;;;;74.37;27.50;;;;;;;0.37;nan;100567.13;4983909;28;20023;-69
2023/03/04 04:54:38;;;;;;;74.30;27.90;;;;;;;0.36;nan;100566.22;4977416;28;20417;-70
2023/03/04 04:57:03;;;;;;;77.03;27.07;;;;;;;0.39;nan;100575.84;4978681;28;20086;-70
2023/03/04 04:59:29;;;;;;;81.60;27.50;;;;;;;0.39;nan;100568.06;4989704;28;20438;-70
2023/03/04 05:01:54;;;;;;;76.87;27.03;;;;;;;0.40;nan;100569.81;4996452;28;20422;-69
2023/03/04 05:04:20;;;;;;;83.50;27.90;;;;;;;0.40;nan;100572.41;4998241;28;20292;-70
2023/03/04 05:06:46;;;;;;;88.10;28.30;;;;;;;0.38;nan;100579.25;5014165;28;20030;-70
2023/03/04 05:09:12;;;;;;;84.17;28.33;;;;;;;0.36;nan;100571.41;4997946;28;20294;-70
2023/03/04 05:11:37;;;;;;;80.80;29.13;;;;;;;0.36;nan;100576.56;4996748;28;20418;-69
2023/03/04 05:14:06;;;;;;;72.37;25.97;;;;;;;0.36;nan;100578.25;4997975;28;20034;-70
2023/03/04 05:16:32;;;;;;;79.33;28.37;;;;;;;0.38;nan;100574.94;4997951;28;20027;-70
2023/03/04 05:18:57;;;;;;;73.97;27.38;;;;;;;0.42;nan;100571.66;4997987;28;20037;-70
2023/03/04 05:21:22;;;;;;;70.00;26.37;;;;;;;0.48;nan;100573.63;4998039;28;20118;-70
2023/03/04 05:23:48;;;;;;;78.60;28.80;;;;;;;0.55;nan;100573.03;4997383;28;20033;-70
2023/03/04 05:26:16;;;;;;;77.77;28.20;;;;;;;0.65;nan;100573.44;4997967;28;20478;-69
2023/03/04 05:28:42;;;;;;;77.15;27.67;;;;;;;0.74;nan;100578.13;5001448;28;20042;-70
2023/03/04 05:31:08;;;;;;;75.00;28.97;;;;;;;0.82;nan;100569.81;4990104;28;20042;-69
2023/03/04 05:33:33;;;;;;;82.15;31.02;;;;;;;0.92;nan;100575.38;4978068;28;20419;-69
2023/03/04 05:35:59;;;;;;;84.07;30.70;;;;;;;1.02;nan;100580.09;4978093;28;20056;-70
2023/03/04 05:38:24;;;;;;;70.55;26.05;;;;;;;1.10;nan;100573.53;4978097;28;20031;-70
2023/03/04 05:40:56;;;;;;;74.53;27.07;;;;;;;1.18;nan;100579.00;4989426;28;20033;-70
2023/03/04 05:43:22;;;;;;;71.03;25.42;;;;;;;1.29;nan;100574.22;4986551;28;20031;-69
2023/03/04 05:45:49;;;;;;;69.53;27.07;;;;;;;1.37;nan;100583.22;4983225;28;21268;-70
2023/03/04 05:48:14;;;;;;;66.55;26.20;;;;;;;1.46;nan;100582.69;4978253;28;20035;-69
2023/03/04 05:50:40;;;;;;;68.00;24.55;;;;;;;1.54;nan;100585.53;4976515;28;20384;-69
2023/03/04 05:53:05;;;;;;;64.20;25.63;;;;;;;1.62;nan;100583.25;4977972;28;20480;-70
2023/03/04 05:55:31;;;;;;;70.70;24.87;;;;;;;1.71;nan;100588.78;4977894;28;20475;-70
2023/03/04 05:57:56;;;;;;;71.35;24.10;;;;;;;1.79;nan;100591.66;4977922;28;20027;-69
2023/03/04 06:00:22;;;;;;;59.77;22.97;;;;;;;1.85;nan;100591.91;4995775;28;20177;-69
2023/03/04 06:02:48;;;;;;;66.57;25.63;;;;;;;1.93;nan;100599.94;4996171;28;20042;-69
2023/03/04 06:05:14;;;;;;;61.97;24.47;;;;;;;2.00;nan;100597.63;5004360;28;20467;-69
2023/03/04 06:07:42;;;;;;;65.10;26.70;;;;;;;2.07;nan;100597.88;5006266;28;20513;-69
2023/03/04 06:10:08;;;;;;;65.80;24.90;;;;;;;2.15;nan;100606.81;4997301;28;20583;-70
2023/03/04 06:12:33;;;;;;;62.80;24.00;;;;;;;2.21;nan;100604.44;4997326;28;20399;-69
2023/03/04 06:14:59;;;;;;;66.28;24.55;;;;;;;2.27;nan;100599.44;4997260;28;20152;-69
2023/03/04 06:17:24;;;;;;;58.43;23.50;;;;;;;2.34;nan;100602.28;4997304;28;20061;-69
2023/03/04 06:19:50;;;;;;;66.77;25.03;;;;;;;2.40;nan;100602.47;4996038;28;20474;-69
2023/03/04 06:22:15;;;;;;;63.87;22.70;;;;;;;2.45;nan;100603.50;4997038;28;20490;-69
2023/03/04 06:24:40;;;;;;;59.33;23.80;;;;;;;2.50;nan;100604.56;4996917;28;20103;-69
2023/03/04 06:27:06;;;;;;;62.95;23.95;;;;;;;2.53;nan;100608.97;5004534;28;20061;-70
2023/03/04 06:29:31;;;;;;;63.90;24.17;;;;;;;2.55;nan;100608.22;4986245;28;20031;-69
2023/03/04 06:31:57;;;;;;;60.70;24.00;;;;;;;2.60;nan;100615.28;4987076;28;20027;-69
2023/03/04 06:34:22;;;;;;;66.23;24.50;;;;;;;2.63;nan;100621.44;4977669;28;20046;-69
2023/03/04 06:36:48;;;;;;;61.97;23.80;;;;;;;2.66;nan;100621.59;4984586;28;20035;-69
2023/03/04 06:39:13;;;;;;;58.93;23.70;;;;;;;2.70;nan;100618.25;4977462;28;20274;-69
2023/03/04 06:41:39;;;;;;;59.53;24.47;;;;;;;2.76;nan;100633.16;4983431;28;20035;-69
2023/03/04 06:44:05;;;;;;;61.72;24.05;;;;;;;2.82;nan;100628.19;4992662;28;20027;-70
2023/03/04 06:46:32;;;;;;;67.22;25.08;;;;;;;2.88;nan;100637.88;4977922;28;20510;-69
2023/03/04 06:48:58;;;;;;;63.58;25.10;;;;;;;2.93;nan;100630.25;4979950;28;20121;-69
2023/03/04 06:51:23;;;;;;;64.50;24.03;;;;;;;2.99;nan;100638.25;4981283;28;20037;-69
2023/03/04 06:53:49;;;;;;;67.63;24.43;;;;;;;3.04;nan;100639.31;4980699;28;20041;-69
2023/03/04 06:56:17;;;;;;;59.67;24.33;;;;;;;3.10;nan;100639.50;4981289;28;20026;-69
2023/03/04 06:58:44;;;;;;;57.78;22.85;;;;;;;3.19;nan;100648.41;4986046;28;20022;-69
2023/03/04 07:01:20;;;;;;;57.50;23.33;;;;;;;3.24;nan;100652.03;5000341;28;20578;-69
2023/03/04 07:03:47;;;;;;;60.22;24.92;;;;;;;3.28;nan;100646.13;5001051;28;20057;-70
2023/03/04 07:06:15;;;;;;;59.37;24.63;;;;;;;3.30;nan;100641.84;4999495;28;20030;-70
2023/03/04 07:08:41;;;;;;;63.53;25.67;;;;;;;3.36;nan;100643.75;4998825;28;20038;-70
2023/03/04 07:11:07;;;;;;;66.70;25.83;;;;;;;3.38;nan;100653.38;5000412;28;20034;-70
2023/03/04 07:13:36;;;;;;;63.40;24.97;;;;;;;3.44;nan;100656.16;5000182;28;20030;-70
2023/03/04 07:16:12;;;;;;;67.95;26.92;;;;;;;3.52;nan;100651.22;5000112;28;20018;-70
2023/03/04 07:18:38;;;;;;;63.80;25.25;;;;;;;3.62;nan;100651.47;5000144;28;20030;-70
2023/03/04 07:21:04;;;;;;;62.63;25.00;;;;;;;3.70;nan;100653.47;5000186;28;20034;-70
2023/03/04 07:23:30;;;;;;;64.15;24.58;;;;;;;3.78;nan;100653.72;4998347;28;20029;-70
2023/03/04 07:25:55;;;;;;;67.77;26.67;;;;;;;3.87;nan;100664.44;4999918;28;20023;-70
2023/03/04 07:28:21;;;;;;;56.00;24.43;;;;;;;3.84;nan;100671.25;4982591;28;20862;-70
2023/03/04 07:30:46;;;;;;;63.00;24.10;;;;;;;3.84;nan;100666.06;4990403;28;20044;-68
2023/03/04 07:33:12;;;;;;;57.50;22.43;;;;;;;3.88;nan;100667.91;4995302;28;20529;-70
2023/03/04 07:35:38;;;;;;;62.13;23.65;;;;;;;3.95;nan;100667.25;4980456;28;20029;-70
2023/03/04 07:38:03;;;;;;;59.17;23.03;;;;;;;4.06;nan;100677.97;4979994;28;20116;-70
2023/03/04 07:40:29;;;;;;;56.38;23.38;;;;;;;4.18;nan;100676.59;4994396;28;20022;-70
2023/03/04 07:42:55;;;;;;;66.13;25.20;;;;;;;4.29;nan;100677.75;4989996;28;20406;-70
2023/03/04 07:45:21;;;;;;;60.97;25.42;;;;;;;4.35;nan;100682.28;4988683;28;20023;-70
2023/03/04 07:47:46;;;;;;;65.00;26.23;;;;;;;4.39;nan;100681.50;4980230;28;20057;-70
2023/03/04 07:50:13;;;;;;;61.00;25.13;;;;;;;4.45;nan;100681.66;4980495;28;20057;-70
2023/03/04 07:52:40;;;;;;;62.90;25.42;;;;;;;4.51;nan;100689.69;4979663;28;20031;-70
2023/03/04 07:55:06;;;;;;;64.13;26.35;;;;;;;4.54;nan;100692.38;4980232;28;20106;-70
2023/03/04 07:57:31;;;;;;;63.90;26.47;;;;;;;4.60;nan;100702.97;4979583;28;20050;-70
2023/03/04 07:59:56;;;;;;;64.95;25.67;;;;;;;4.65;nan;100689.16;4994333;28;20117;-70
2023/03/04 08:02:22;;;;;;;74.33;28.83;;;;;;;4.71;nan;100694.56;4999331;28;20030;-70
2023/03/04 08:04:47;;;;;;;69.33;27.50;;;;;;;4.77;nan;100699.94;5004099;28;20430;-70
2023/03/04 08:07:13;;;;;;;57.80;25.87;;;;;;;4.83;nan;100701.84;5010695;28;20033;-70
2023/03/04 08:09:38;;;;;;;59.37;24.93;;;;;;;4.92;nan;100695.94;4999509;28;20022;-70
2023/03/04 08:12:03;;;;;;;61.73;26.10;;;;;;;5.00;nan;100686.63;4999602;28;20027;-70
2023/03/04 08:14:29;;;;;;;64.15;25.67;;;;;;;5.08;nan;100692.03;4998215;28;20069;-70
2023/03/04 08:16:54;;;;;;;63.07;25.70;;;;;;;5.17;nan;100698.34;4999236;28;20033;-70
2023/03/04 08:19:19;;;;;;;64.73;26.53;;;;;;;5.27;nan;100695.97;4999574;28;20026;-70
2023/03/04 08:21:45;;;;;;;60.93;25.63;;;;;;;5.38;nan;100704.94;4999067;28;20022;-70
2023/03/04 08:24:11;;;;;;;65.72;26.65;;;;;;;5.49;nan;100697.38;4999086;28;20037;-70
2023/03/04 08:26:40;;;;;;;65.00;25.63;;;;;;;5.60;nan;100695.00;5002486;28;20024;-70
2023/03/04 08:29:08;;;;;;;56.65;24.35;;;;;;;5.71;nan;100703.09;4993708;28;20033;-70
2023/03/04 08:31:33;;;;;;;66.00;25.75;;;;;;;5.80;nan;100697.19;4989523;28;20688;-70
2023/03/04 08:34:00;;;;;;;60.80;26.30;;;;;;;5.92;nan;100697.50;4979499;28;20105;-70
2023/03/04 08:36:26;;;;;;;58.78;25.15;;;;;;;6.06;nan;100689.06;4990822;28;20023;-70
2023/03/04 08:38:51;;;;;;;58.70;25.67;;;;;;;6.21;nan;100688.50;4979210;28;20033;-70
2023/03/04 08:41:17;;;;;;;57.40;25.42;;;;;;;6.35;nan;100691.41;4986021;28;20058;-70
2023/03/04 08:43:43;;;;;;;57.67;25.07;;;;;;;6.50;nan;100696.97;4990342;28;20088;-69
2023/03/04 08:46:08;;;;;;;58.05;23.98;;;;;;;6.65;nan;100690.28;4980679;28;20070;-69
2023/03/04 08:48:33;;;;;;;61.67;25.63;;;;;;;6.79;nan;100688.78;4979183;28;20031;-70
2023/03/04 08:50:59;;;;;;;57.03;24.80;;;;;;;6.90;nan;100686.34;4978969;28;20027;-70
2023/03/04 08:53:24;;;;;;;55.90;24.52;;;;;;;7.03;nan;100688.34;4978825;28;20018;-69
2023/03/04 08:55:51;;;;;;;62.83;26.33;;;;;;;7.19;nan;100685.97;4978784;28;20173;-68
2023/03/04 08:58:17;;;;;;;59.75;26.13;;;;;;;7.35;nan;100694.94;4980163;28;20022;-68
2023/03/04 09:00:47;;;;;;;59.83;27.10;;;;;;;7.55;nan;100682.19;4998175;28;20046;-68
2023/03/04 09:03:13;;;;;;;64.38;27.83;;;;;;;7.77;nan;100682.50;4999689;28;20029;-68
2023/03/04 09:05:39;;;;;;;61.47;28.48;;;;;;;7.99;nan;100688.91;5007643;28;20104;-68
2023/03/04 09:08:05;;;;;;;61.83;26.60;;;;;;;8.22;nan;100684.81;5002085;28;20081;-70
2023/03/04 09:10:30;;;;;;;64.35;28.23;;;;;;;8.48;nan;100686.00;4997599;28;20030;-70
2023/03/04 09:12:57;;;;;;;63.00;27.50;;;;;;;8.76;nan;100682.81;4998247;28;20122;-70
2023/03/04 09:15:22;;;;;;;63.10;27.15;;;;;;;9.02;nan;100674.31;4996604;28;20022;-70
2023/03/04 09:17:47;;;;;;;61.83;26.43;;;;;;;9.19;nan;100670.09;4998000;28;20085;-67
2023/03/04 09:20:13;;;;;;;61.53;26.33;;;;;;;9.34;nan;100676.34;4997916;28;20101;-67
2023/03/04 09:22:39;;;;;;;61.40;28.75;;;;;;;9.42;nan;100679.91;4997748;28;20109;-70
2023/03/04 09:25:05;;;;;;;66.23;28.30;;;;;;;9.56;nan;100687.88;4992529;28;20027;-70
2023/03/04 09:27:30;;;;;;;63.22;28.50;;;;;;;9.64;nan;100680.03;4999601;28;20698;-70
2023/03/04 09:29:56;;;;;;;59.13;26.57;;;;;;;9.71;nan;100679.22;4984313;28;20156;-67
2023/03/04 09:32:21;;;;;;;58.95;26.52;;;;;;;9.80;nan;100677.53;4986237;28;20399;-67
2023/03/04 09:34:47;;;;;;;59.33;27.37;;;;;;;9.91;nan;100678.44;4978229;28;20543;-70
2023/03/04 09:37:12;;;;;;;58.20;27.43;;;;;;;10.04;nan;100679.38;4978169;28;20097;-67
2023/03/04 09:39:37;;;;;;;47.47;22.07;;;;;;;10.19;nan;100679.47;4977951;28;20095;-70
2023/03/04 09:42:06;;;;;;;44.30;20.23;;;;;;;10.39;nan;100683.03;4983765;28;20019;-70
2023/03/04 09:44:41;;;;;;;43.38;20.15;;;;;;;10.64;nan;100681.41;4991814;28;20023;-67
2023/03/04 09:47:16;;;;;;;39.75;18.75;;;;;;;10.93;nan;100674.41;4978268;28;20501;-70
2023/03/04 09:49:47;;;;;;;42.22;20.25;;;;;;;11.33;nan;100679.69;4978338;28;20023;-67
2023/03/04 09:52:48;;;;;;;39.50;19.55;;;;;;;11.79;nan;100670.81;4977916;28;20031;-67
2023/03/04 09:55:24;;;;;;;40.97;19.03;;;;;;;12.40;nan;100679.44;4978242;28;20014;-67
2023/03/04 09:57:56;;;;;;;42.38;19.73;;;;;;;12.90;nan;100672.13;4977971;28;20026;-67
2023/03/04 10:00:24;;;;;;;40.33;21.20;;;;;;;13.29;nan;100670.91;4995848;28;20046;-67
2023/03/04 10:03:12;;;;;;;39.45;18.63;;;;;;;13.71;nan;100667.88;4996251;28;20563;-68
2023/03/04 10:05:53;;;;;;;40.70;20.75;;;;;;;14.32;nan;100666.28;5003770;28;20033;-68
2023/03/04 10:08:33;;;;;;;39.00;19.17;;;;;;;14.83;nan;100661.22;4999516;28;20049;-67
2023/03/04 10:11:02;;;;;;;42.20;21.45;;;;;;;15.33;nan;100656.84;4978070;28;20034;-68
2023/03/04 10:13:37;;;;;;;35.90;19.73;;;;;;;15.82;nan;100655.97;4977671;28;20546;-67
2023/03/04 10:16:05;;;;;;;37.63;19.52;;;;;;;16.07;nan;100667.88;4976478;28;20031;-68
2023/03/04 10:18:37;;;;;;;43.33;22.58;;;;;;;16.07;nan;100654.59;4977849;28;20066;-68
2023/03/04 10:21:20;;;;;;;39.07;21.23;;;;;;;16.13;nan;100658.91;4990042;28;20058;-68
2023/03/04 10:23:46;;;;;;;38.90;21.33;;;;;;;16.36;nan;100657.53;4993748;28;20081;-68
2023/03/04 10:26:14;;;;;;;39.25;20.75;;;;;;;16.56;nan;100654.44;4980252;28;20031;-67
2023/03/04 10:28:41;;;;;;;35.75;19.52;;;;;;;16.78;nan;100645.97;4993233;28;20459;-68
2023/03/04 10:31:25;;;;;;;40.72;21.25;;;;;;;16.81;nan;100645.91;4992826;28;20038;-68
2023/03/04 10:33:51;;;;;;;38.40;21.20;;;;;;;17.02;nan;100643.66;4981646;28;20097;-68
2023/03/04 10:36:28;;;;;;;36.92;20.90;;;;;;;17.02;nan;100646.31;4981446;28;20026;-68
2023/03/04 10:39:10;;;;;;;40.10;21.07;;;;;;;16.91;nan;100639.44;4979879;28;20503;-68
2023/03/04 10:41:40;;;;;;;38.17;19.77;;;;;;;16.89;nan;100638.59;4988022;28;20058;-68
2023/03/04 10:44:08;;;;;;;36.25;20.67;;;;;;;16.68;nan;100644.44;4993177;28;20062;-68
2023/03/04 10:46:42;;;;;;;41.63;21.85;;;;;;;16.57;nan;100640.25;4981335;28;20027;-68
2023/03/04 10:49:10;;;;;;;43.28;22.98;;;;;;;16.76;nan;100642.47;4979955;28;20129;-68
2023/03/04 10:51:44;;;;;;;41.27;21.67;;;;;;;16.68;nan;100641.75;4981006;28;20113;-68
2023/03/04 10:54:32;;;;;;;36.33;20.50;;;;;;;16.79;nan;100640.59;4979754;28;20117;-68
2023/03/04 10:57:03;;;;;;;39.38;20.90;;;;;;;16.98;nan;100634.88;4981003;28;20054;-68
2023/03/04 10:59:57;;;;;;;41.67;22.27;;;;;;;17.24;nan;100637.78;4992186;28;20030;-68
2023/03/04 11:02:22;;;;;;;36.83;21.10;;;;;;;17.55;nan;100627.19;4999121;28;20065;-68
2023/03/04 11:05:18;;;;;;;39.27;22.20;;;;;;;18.02;nan;100618.81;5005818;28;20490;-68
2023/03/04 11:07:52;;;;;;;38.15;22.65;;;;;;;18.77;nan;100627.19;5000120;28;20514;-68
2023/03/04 11:10:18;;;;;;;39.47;21.57;;;;;;;19.51;nan;100624.72;5000261;28;20030;-68
2023/03/04 11:12:58;;;;;;;39.95;22.05;;;;;;;20.78;nan;100618.16;5000497;28;20105;-68
2023/03/04 11:15:28;;;;;;;40.00;22.60;;;;;;;22.10;nan;100608.94;5000287;28;20030;-68
2023/03/04 11:17:59;;;;;;;36.47;22.33;;;;;;;23.05;nan;100608.81;4988225;28;20479;-68
2023/03/04 11:20:29;;;;;;;38.47;24.23;;;;;;;24.51;nan;100608.28;4980635;28;20033;-68
2023/03/04 11:23:00;;;;;;;38.33;23.75;;;;;;;25.62;nan;100600.00;4980384;28;20498;-68
2023/03/04 11:25:29;;;;;;;39.33;24.17;;;;;;;26.13;nan;100593.22;4991283;28;20029;-69
2023/03/04 11:28:00;;;;;;;39.97;26.10;;;;;;;26.83;nan;100600.34;5006395;28;20042;-69
2023/03/04 11:30:50;;;;;;;40.95;27.67;;;;;;;27.22;nan;100598.66;4987536;28;20084;-69
2023/03/04 11:33:25;;;;;;;36.17;24.77;;;;;;;27.54;nan;100596.53;4981336;28;20039;-69